createdAt,value
2023-03-21T00:02:07.291Z,100432.41
2023-03-21T00:05:05.827Z,100429.31
2023-03-21T00:08:01.111Z,100436.31
2023-03-21T00:10:57.538Z,100440.06
2023-03-21T00:13:48.493Z,100438.78
2023-03-21T00:16:39.429Z,100440.41
2023-03-21T00:19:29.324Z,100440.41
2023-03-21T00:22:17.959Z,100444.94
2023-03-21T00:25:08.222Z,100437.50
2023-03-21T00:28:07.895Z,100442.50
2023-03-21T00:31:01.063Z,100443.31
2023-03-21T00:33:49.627Z,100451.13
2023-03-21T00:36:38.397Z,100448.03
2023-03-21T00:39:27.436Z,100442.69
2023-03-21T00:42:16.086Z,100447.44
2023-03-21T00:45:04.809Z,100435.97
2023-03-21T00:47:55.111Z,100437.78
2023-03-21T00:50:45.388Z,100442.09
2023-03-21T00:53:34.048Z,100441.72
2023-03-21T00:56:23.815Z,100442.50
2023-03-21T00:59:12.424Z,100438.38
2023-03-21T01:02:01.277Z,100441.88
2023-03-21T01:04:52.534Z,100442.69
2023-03-21T01:07:41.189Z,100433.06
2023-03-21T01:10:30.589Z,100438.41
2023-03-21T01:13:21.236Z,100435.50
2023-03-21T01:16:11.345Z,100439.59
2023-03-21T01:19:01.170Z,100436.31
2023-03-21T01:21:52.101Z,100435.50
2023-03-21T01:24:52.544Z,100437.16
2023-03-21T01:27:43.899Z,100436.31
2023-03-21T01:30:36.949Z,100447.00
2023-03-21T01:33:30.441Z,100435.88
2023-03-21T01:36:23.519Z,100443.53
2023-03-21T01:39:14.276Z,100441.66
2023-03-21T01:42:02.895Z,100449.06
2023-03-21T01:44:58.504Z,100442.66
2023-03-21T01:47:47.541Z,100441.22
2023-03-21T01:50:36.936Z,100437.94
2023-03-21T01:53:30.338Z,100433.00
2023-03-21T01:56:24.910Z,100439.56
2023-03-21T01:59:18.367Z,100434.47
2023-03-21T02:02:10.043Z,100435.88
2023-03-21T02:04:59.517Z,100428.28
2023-03-21T02:07:48.844Z,100427.06
2023-03-21T02:10:38.041Z,100429.75
2023-03-21T02:13:28.167Z,100424.81
2023-03-21T02:16:21.866Z,100427.50
2023-03-21T02:19:33.053Z,100429.31
2023-03-21T02:22:55.977Z,100425.41
2023-03-21T02:26:28.471Z,100426.03
2023-03-21T02:30:02.162Z,100419.44
2023-03-21T02:33:03.484Z,100418.63
2023-03-21T02:36:05.658Z,100421.09
2023-03-21T02:39:09.029Z,100414.94
2023-03-21T02:42:04.567Z,100420.28
2023-03-21T02:45:00.516Z,100417.41
2023-03-21T02:47:51.236Z,100420.28
2023-03-21T02:50:45.801Z,100419.66
2023-03-21T02:53:39.531Z,100421.09
2023-03-21T02:56:31.363Z,100420.28
2023-03-21T02:59:21.759Z,100419.03
2023-03-21T03:02:10.461Z,100418.63
2023-03-21T03:05:00.697Z,100426.03
2023-03-21T03:07:58.493Z,100428.72
2023-03-21T03:10:58.595Z,100412.88
2023-03-21T03:13:58.101Z,100406.94
2023-03-21T03:16:51.302Z,100403.84
2023-03-21T03:19:50.657Z,100405.06
2023-03-21T03:22:44.441Z,100418.22
2023-03-21T03:25:42.846Z,100416.97
2023-03-21T03:28:33.659Z,100414.94
2023-03-21T03:31:27.388Z,100410.59
2023-03-21T03:34:20.727Z,100400.94
2023-03-21T03:37:10.644Z,100401.56
2023-03-21T03:40:02.292Z,100412.06
2023-03-21T03:42:53.929Z,100418.00
2023-03-21T03:45:46.560Z,100419.03
2023-03-21T03:48:46.566Z,100409.16
2023-03-21T03:51:40.754Z,100404.22
2023-03-21T03:54:32.297Z,100408.97
2023-03-21T03:57:21.040Z,100405.88
2023-03-21T04:00:12.957Z,100414.47
2023-03-21T04:03:01.835Z,100418.00
2023-03-21T04:05:51.846Z,100419.81
2023-03-21T04:08:41.444Z,100412.41
2023-03-21T04:11:30.053Z,100419.44
2023-03-21T04:14:18.787Z,100414.09
2023-03-21T04:17:07.399Z,100428.06
2023-03-21T04:20:05.419Z,100421.69
2023-03-21T04:23:00.853Z,100426.22
2023-03-21T04:25:56.717Z,100417.38
2023-03-21T04:28:45.723Z,100421.88
2023-03-21T04:31:36.053Z,100418.78
2023-03-21T04:34:28.163Z,100421.09
2023-03-21T04:37:19.091Z,100420.22
2023-03-21T04:40:11.206Z,100417.75
2023-03-21T04:43:01.278Z,100410.56
2023-03-21T04:45:49.946Z,100409.53
2023-03-21T04:48:38.917Z,100418.59
2023-03-21T04:51:27.675Z,100414.47
2023-03-21T04:54:16.388Z,100417.78
2023-03-21T04:57:06.858Z,100417.84
2023-03-21T04:59:58.200Z,100422.31
2023-03-21T05:02:47.260Z,100418.22
2023-03-21T05:05:37.179Z,100425.44
2023-03-21T05:08:26.556Z,100414.50
2023-03-21T05:11:15.399Z,100413.72
2023-03-21T05:14:05.734Z,100420.34
2023-03-21T05:16:56.455Z,100417.91
2023-03-21T05:19:45.183Z,100411.66
2023-03-21T05:22:40.385Z,100420.34
2023-03-21T05:25:34.876Z,100417.19
2023-03-21T05:28:34.344Z,100428.72
2023-03-21T05:31:24.795Z,100428.44
2023-03-21T05:34:13.828Z,100425.19
2023-03-21T05:37:02.580Z,100424.53
2023-03-21T05:39:51.536Z,100417.72
2023-03-21T05:42:40.220Z,100423.06
2023-03-21T05:45:28.858Z,100429.25
2023-03-21T05:48:19.091Z,100425.53
2023-03-21T05:51:08.421Z,100428.00
2023-03-21T05:53:57.052Z,100424.91
2023-03-21T05:56:45.743Z,100418.13
2023-03-21T05:59:35.023Z,100420.59
2023-03-21T06:02:23.714Z,100423.00
2023-03-21T06:05:13.931Z,100426.75
2023-03-21T06:08:03.156Z,100430.44
2023-03-21T06:10:52.714Z,100422.78
2023-03-21T06:13:41.476Z,100427.16
2023-03-21T06:16:30.450Z,100430.00
2023-03-21T06:19:19.229Z,100434.56
2023-03-21T06:22:09.395Z,100429.22
2023-03-21T06:24:58.153Z,100426.72
2023-03-21T06:27:46.801Z,100432.66
2023-03-21T06:30:35.421Z,100438.25
2023-03-21T06:33:24.539Z,100439.84
2023-03-21T06:36:13.511Z,100440.59
2023-03-21T06:39:26.653Z,100441.63
2023-03-21T06:42:15.876Z,100440.00
2023-03-21T06:45:04.895Z,100434.50
2023-03-21T06:47:53.796Z,100441.44
2023-03-21T06:50:42.899Z,100451.34
2023-03-21T06:53:33.285Z,100448.06
2023-03-21T06:56:24.421Z,100453.41
2023-03-21T06:59:13.381Z,100451.00
2023-03-21T07:02:02.724Z,100448.47
2023-03-21T07:04:53.813Z,100452.38
2023-03-21T07:07:42.884Z,100453.66
2023-03-21T07:10:31.735Z,100452.63
2023-03-21T07:13:22.932Z,100458.34
2023-03-21T07:16:12.153Z,100462.41
2023-03-21T07:19:01.317Z,100449.72
2023-03-21T07:21:50.160Z,100457.00
2023-03-21T07:24:38.988Z,100458.88
2023-03-21T07:27:27.654Z,100461.38
2023-03-21T07:30:19.696Z,100460.63
2023-03-21T07:33:08.446Z,100455.91
2023-03-21T07:35:57.792Z,100457.69
2023-03-21T07:38:47.365Z,100460.25
2023-03-21T07:41:36.306Z,100461.03
2023-03-21T07:44:25.563Z,100460.25
2023-03-21T07:47:16.888Z,100470.94
2023-03-21T07:50:06.310Z,100472.38
2023-03-21T07:52:55.962Z,100474.94
2023-03-21T07:55:44.655Z,100465.53
2023-03-21T07:58:34.264Z,100458.53
2023-03-21T08:01:23.529Z,100457.59
2023-03-21T08:04:13.929Z,100458.00
2023-03-21T08:07:03.366Z,100454.06
2023-03-21T08:09:52.274Z,100451.38
2023-03-21T08:12:41.255Z,100458.19
2023-03-21T08:15:29.875Z,100456.53
2023-03-21T08:18:18.884Z,100451.25
2023-03-21T08:21:09.760Z,100456.59
2023-03-21T08:23:58.463Z,100459.63
2023-03-21T08:26:48.094Z,100463.13
2023-03-21T08:29:40.508Z,100456.16
2023-03-21T08:32:31.425Z,100458.19
2023-03-21T08:35:21.078Z,100451.22
2023-03-21T08:38:11.538Z,100457.78
2023-03-21T08:41:00.416Z,100452.44
2023-03-21T08:43:49.470Z,100451.00
2023-03-21T08:46:38.154Z,100443.81
2023-03-21T08:49:27.112Z,100446.66
2023-03-21T08:52:15.788Z,100444.63
2023-03-21T08:55:06.783Z,100450.19
2023-03-21T08:57:55.863Z,100450.34
2023-03-21T09:00:44.507Z,100448.31
2023-03-21T09:03:33.584Z,100445.03
2023-03-21T09:06:24.746Z,100445.00
2023-03-21T09:09:13.738Z,100445.88
2023-03-21T09:12:03.823Z,100437.66
2023-03-21T09:14:53.336Z,100438.47
2023-03-21T09:17:44.141Z,100440.72
2023-03-21T09:20:33.141Z,100439.06
2023-03-21T09:23:22.793Z,100444.03
2023-03-21T09:26:12.597Z,100436.44
2023-03-21T09:29:04.917Z,100435.16
2023-03-21T09:31:54.382Z,100440.09
2023-03-21T09:34:43.196Z,100443.03
2023-03-21T09:37:32.758Z,100437.47
2023-03-21T09:40:23.009Z,100440.75
2023-03-21T09:43:22.075Z,100446.31
2023-03-21T09:46:16.937Z,100432.34
2023-03-21T09:49:07.987Z,100431.31
2023-03-21T09:51:58.226Z,100426.16
2023-03-21T09:54:47.152Z,100423.06
2023-03-21T09:57:40.072Z,100425.72
2023-03-21T10:00:32.852Z,100422.84
2023-03-21T10:03:24.611Z,100410.28
2023-03-21T10:06:16.226Z,100409.50
2023-03-21T10:09:09.222Z,100410.94
2023-03-21T10:12:00.918Z,100409.09
2023-03-21T10:14:51.877Z,100407.44
2023-03-21T10:17:43.762Z,100401.91
2023-03-21T10:20:35.146Z,100406.03
2023-03-21T10:23:28.041Z,100400.25
2023-03-21T10:26:20.398Z,100392.25
2023-03-21T10:29:12.654Z,100402.72
2023-03-21T10:32:01.766Z,100392.84
2023-03-21T10:34:52.884Z,100392.84
2023-03-21T10:37:43.533Z,100387.50
2023-03-21T10:40:33.580Z,100389.16
2023-03-21T10:43:35.403Z,100389.56
2023-03-21T10:46:24.722Z,100387.91
2023-03-21T10:49:17.582Z,100387.91
2023-03-21T10:52:09.605Z,100390.78
2023-03-21T10:55:10.725Z,100385.44
2023-03-21T10:58:01.954Z,100383.00
2023-03-21T11:00:50.738Z,100377.41
2023-03-21T11:03:43.637Z,100376.38
2023-03-21T11:06:33.918Z,100379.91
2023-03-21T11:09:25.077Z,100371.88
2023-03-21T11:12:17.116Z,100374.31
2023-03-21T11:15:27.205Z,100372.28
2023-03-21T11:18:18.669Z,100372.50
2023-03-21T11:21:09.457Z,100366.09
2023-03-21T11:23:58.810Z,100362.41
2023-03-21T11:26:51.601Z,100358.69
2023-03-21T11:29:42.881Z,100353.97
2023-03-21T11:32:37.214Z,100352.50
2023-03-21T11:35:27.282Z,100350.06
2023-03-21T11:38:26.371Z,100343.50
2023-03-21T11:41:24.243Z,100336.88
2023-03-21T11:44:28.186Z,100339.13
2023-03-21T11:47:18.495Z,100336.47
2023-03-21T11:50:17.700Z,100333.19
2023-03-21T11:53:22.790Z,100321.88
2023-03-21T11:56:22.554Z,100316.34
2023-03-21T11:59:37.817Z,100309.34
2023-03-21T12:02:55.880Z,100309.72
2023-03-21T12:05:50.381Z,100304.00
2023-03-21T12:08:46.229Z,100307.47
2023-03-21T12:11:39.692Z,100304.81
2023-03-21T12:14:34.312Z,100299.88
2023-03-21T12:17:36.221Z,100302.75
2023-03-21T12:20:45.714Z,100296.38
2023-03-21T12:23:40.773Z,100290.00
2023-03-21T12:26:31.417Z,100286.50
2023-03-21T12:29:31.950Z,100273.31
2023-03-21T12:32:29.146Z,100272.28
2023-03-21T12:35:24.330Z,100267.75
2023-03-21T12:38:18.627Z,100270.00
2023-03-21T12:41:16.461Z,100270.44
2023-03-21T12:44:06.359Z,100269.63
2023-03-21T12:46:59.015Z,100263.25
2023-03-21T12:49:54.028Z,100255.41
2023-03-21T12:52:45.645Z,100257.47
2023-03-21T12:55:37.003Z,100249.63
2023-03-21T12:58:28.283Z,100249.00
2023-03-21T13:01:18.658Z,100237.69
2023-03-21T13:04:28.116Z,100239.91
2023-03-21T13:07:20.052Z,100231.50
2023-03-21T13:10:15.867Z,100227.78
2023-03-21T13:13:13.867Z,100225.78
2023-03-21T13:16:09.697Z,100217.94
2023-03-21T13:19:07.179Z,100224.19
2023-03-21T13:22:02.255Z,100218.38
2023-03-21T13:24:52.435Z,100210.88
2023-03-21T13:27:46.433Z,100208.78
2023-03-21T13:30:37.828Z,100200.56
2023-03-21T13:33:34.920Z,100197.31
2023-03-21T13:36:29.851Z,100191.97
2023-03-21T13:39:21.138Z,100189.34
2023-03-21T13:42:20.190Z,100194.63
2023-03-21T13:45:13.083Z,100193.63
2023-03-21T13:48:06.331Z,100183.69
2023-03-21T13:51:01.267Z,100178.69
2023-03-21T13:54:01.373Z,100187.38
2023-03-21T13:56:51.526Z,100179.50
2023-03-21T13:59:43.973Z,100184.03
2023-03-21T14:02:34.132Z,100176.22
2023-03-21T14:05:26.533Z,100176.22
2023-03-21T14:08:27.949Z,100172.22
2023-03-21T14:11:24.137Z,100171.84
2023-03-21T14:14:12.847Z,100173.13
2023-03-21T14:17:01.501Z,100166.13
2023-03-21T14:19:55.159Z,100156.63
2023-03-21T14:22:48.420Z,100158.75
2023-03-21T14:25:46.814Z,100147.22
2023-03-21T14:28:36.587Z,100147.75
2023-03-21T14:31:26.012Z,100139.69
2023-03-21T14:34:16.821Z,100138.09
2023-03-21T14:37:08.860Z,100139.69
2023-03-21T14:40:08.139Z,100128.75
2023-03-21T14:42:57.347Z,100123.53
2023-03-21T14:45:50.344Z,100126.47
2023-03-21T14:48:39.054Z,100123.00
2023-03-21T14:51:27.837Z,100113.91
2023-03-21T14:54:18.669Z,100126.13
2023-03-21T14:57:12.442Z,100114.22
2023-03-21T15:00:05.978Z,100112.22
2023-03-21T15:02:56.095Z,100108.19
2023-03-21T15:05:45.218Z,100108.97
2023-03-21T15:08:33.794Z,100099.50
2023-03-21T15:11:31.324Z,100101.41
2023-03-21T15:14:27.009Z,100102.84
2023-03-21T15:17:16.233Z,100099.97
2023-03-21T15:20:05.661Z,100088.06
2023-03-21T15:22:57.292Z,100097.31
2023-03-21T15:25:46.456Z,100096.28
2023-03-21T15:28:36.465Z,100091.34
2023-03-21T15:31:30.133Z,100091.72
2023-03-21T15:34:23.632Z,100093.50
2023-03-21T15:37:19.342Z,100088.34
2023-03-21T15:40:11.350Z,100086.69
2023-03-21T15:43:07.525Z,100084.75
2023-03-21T15:45:57.695Z,100083.44
2023-03-21T15:48:47.869Z,100081.81
2023-03-21T15:51:36.799Z,100084.38
2023-03-21T15:54:27.361Z,100084.16
2023-03-21T15:57:22.696Z,100078.81
2023-03-21T16:00:22.899Z,100084.38
2023-03-21T16:03:18.191Z,100077.34
2023-03-21T16:06:16.819Z,100070.00
2023-03-21T16:09:11.004Z,100077.41
2023-03-21T16:12:00.460Z,100073.28
2023-03-21T16:14:49.309Z,100072.47
2023-03-21T16:17:39.388Z,100072.69
2023-03-21T16:20:29.572Z,100078.22
2023-03-21T16:23:19.718Z,100072.47
2023-03-21T16:26:08.824Z,100074.50
2023-03-21T16:28:57.862Z,100078.16
2023-03-21T16:31:49.386Z,100071.59
2023-03-21T16:34:38.160Z,100065.84
2023-03-21T16:37:26.836Z,100075.78
2023-03-21T16:40:24.336Z,100063.81
2023-03-21T16:43:13.080Z,100066.50
2023-03-21T16:46:01.883Z,100068.75
2023-03-21T16:48:52.481Z,100069.53
2023-03-21T16:51:41.249Z,100078.66
2023-03-21T16:54:29.866Z,100074.94
2023-03-21T16:57:27.733Z,100075.13
2023-03-21T17:00:23.792Z,100075.97
2023-03-21T17:03:18.118Z,100077.44
2023-03-21T17:06:09.103Z,100071.63
2023-03-21T17:08:58.822Z,100079.84
2023-03-21T17:11:47.483Z,100082.75
2023-03-21T17:14:37.931Z,100079.06
2023-03-21T17:17:26.569Z,100075.72
2023-03-21T17:20:21.172Z,100070.19
2023-03-21T17:23:10.288Z,100070.41
2023-03-21T17:25:58.883Z,100068.72
2023-03-21T17:28:47.554Z,100064.94
2023-03-21T17:31:38.612Z,100070.34
2023-03-21T17:34:27.414Z,100057.06
2023-03-21T17:37:16.276Z,100068.09
2023-03-21T17:40:07.018Z,100063.88
2023-03-21T17:42:56.419Z,100066.28
2023-03-21T17:45:45.097Z,100069.66
2023-03-21T17:48:35.281Z,100069.50
2023-03-21T17:51:26.180Z,100063.09
2023-03-21T17:54:15.151Z,100060.44
2023-03-21T17:57:04.197Z,100062.25
2023-03-21T17:59:52.949Z,100054.28
2023-03-21T18:02:41.950Z,100051.75
2023-03-21T18:05:33.676Z,100047.38
2023-03-21T18:08:22.791Z,100052.00
2023-03-21T18:11:12.790Z,100051.59
2023-03-21T18:14:15.423Z,100045.91
2023-03-21T18:17:05.894Z,100048.25
2023-03-21T18:19:55.550Z,100047.97
2023-03-21T18:22:47.018Z,100048.78
2023-03-21T18:25:36.051Z,100048.47
2023-03-21T18:28:24.752Z,100054.81
2023-03-21T18:31:19.738Z,100051.16
2023-03-21T18:34:09.000Z,100054.44
2023-03-21T18:36:57.808Z,100045.41
2023-03-21T18:39:49.515Z,100049.72
2023-03-21T18:42:38.578Z,100048.50
2023-03-21T18:45:27.651Z,100053.53
2023-03-21T18:48:16.367Z,100056.34
2023-03-21T18:51:05.713Z,100059.53
2023-03-21T18:53:55.031Z,100051.94
2023-03-21T18:59:54.145Z,100056.84
2023-03-21T19:02:46.932Z,100051.03
2023-03-21T19:05:36.556Z,100062.19
2023-03-21T19:08:25.145Z,100053.69
2023-03-21T19:11:13.984Z,100056.78
2023-03-21T19:14:03.985Z,100063.09
2023-03-21T19:17:56.438Z,100054.69
2023-03-21T19:20:04.326Z,100054.81
2023-03-21T19:22:53.023Z,100064.53
2023-03-21T19:25:42.772Z,100061.78
2023-03-21T19:28:31.427Z,100060.56
2023-03-21T19:31:23.982Z,100067.28
2023-03-21T19:34:13.786Z,100064.81
2023-03-21T19:37:02.815Z,100071.00
2023-03-21T19:39:51.717Z,100064.47
2023-03-21T19:42:41.899Z,100062.81
2023-03-21T19:45:30.612Z,100057.81
2023-03-21T19:48:21.307Z,100064.16
2023-03-21T19:54:21.554Z,100059.91
2023-03-21T19:57:10.485Z,100056.56
2023-03-21T19:59:59.329Z,100069.00
2023-03-21T20:02:48.594Z,100059.09
2023-03-21T20:05:38.669Z,100055.19
2023-03-21T20:08:28.289Z,100059.13
2023-03-21T20:11:18.064Z,100057.56
2023-03-21T20:14:06.672Z,100053.75
2023-03-21T20:16:57.441Z,100057.44
2023-03-21T20:19:46.569Z,100059.38
2023-03-21T20:23:05.240Z,100059.47
2023-03-21T20:25:46.229Z,100060.28
2023-03-21T20:28:37.878Z,100062.59
2023-03-21T20:31:27.359Z,100064.75
2023-03-21T20:34:16.191Z,100070.56
2023-03-21T20:37:06.289Z,100070.72
2023-03-21T20:39:57.086Z,100055.66
2023-03-21T20:42:50.274Z,100064.75
2023-03-21T20:45:38.988Z,100064.91
2023-03-21T20:48:29.695Z,100059.47
2023-03-21T20:52:21.252Z,100066.53
2023-03-21T20:54:27.747Z,100068.16
2023-03-21T20:57:18.068Z,100070.38
2023-03-21T21:00:13.710Z,100066.31
2023-03-21T21:03:03.943Z,100067.41
2023-03-21T21:05:53.834Z,100066.47
2023-03-21T21:08:43.476Z,100071.00
2023-03-21T21:14:43.116Z,100075.59
2023-03-21T21:18:01.913Z,100066.97
2023-03-21T21:20:45.285Z,100078.22
2023-03-21T21:23:34.945Z,100082.72
2023-03-21T21:26:27.349Z,100088.66
2023-03-21T21:29:17.014Z,100088.28
2023-03-21T21:32:07.045Z,100091.00
2023-03-21T21:34:59.947Z,100088.41
2023-03-21T21:37:51.780Z,100094.19
2023-03-21T21:40:42.273Z,100093.97
2023-03-21T21:43:34.340Z,100099.94
2023-03-21T21:46:23.094Z,100088.66
2023-03-21T21:49:13.205Z,100093.00
2023-03-21T21:52:04.329Z,100095.06
2023-03-21T21:54:52.940Z,100086.47
2023-03-21T21:57:44.825Z,100101.66
2023-03-21T22:00:34.314Z,100111.56
2023-03-21T22:03:23.322Z,100104.56
2023-03-21T22:06:13.761Z,100108.50
2023-03-21T22:09:03.935Z,100105.38
2023-03-21T22:11:52.563Z,100104.97
2023-03-21T22:14:41.354Z,100108.03
2023-03-21T22:17:29.982Z,100110.72
2023-03-21T22:20:20.545Z,100110.72
2023-03-21T22:23:10.692Z,100108.66
2023-03-21T22:25:59.556Z,100108.25
2023-03-21T22:28:48.437Z,100110.75
2023-03-21T22:31:38.860Z,100114.44
2023-03-21T22:34:28.758Z,100114.03
2023-03-21T22:37:17.460Z,100118.53
2023-03-21T22:40:10.295Z,100121.84
2023-03-21T22:42:58.895Z,100116.28
2023-03-21T22:45:47.649Z,100118.97
2023-03-21T22:48:36.289Z,100108.28
2023-03-21T22:51:24.883Z,100112.41
2023-03-21T22:54:13.575Z,100107.47
2023-03-21T22:57:03.565Z,100116.91
2023-03-21T22:59:52.286Z,100106.47
2023-03-21T23:02:41.306Z,100096.81
2023-03-21T23:05:30.936Z,100101.31
2023-03-21T23:08:19.622Z,100106.63
2023-03-21T23:11:08.779Z,100106.63
2023-03-21T23:14:07.503Z,100099.22
2023-03-21T23:17:00.424Z,100090.41
2023-03-21T23:19:49.754Z,100094.75
2023-03-21T23:22:38.773Z,100089.41
2023-03-21T23:25:28.944Z,100093.91
2023-03-21T23:28:17.690Z,100090.00
2023-03-21T23:31:12.682Z,100088.16
2023-03-21T23:34:02.055Z,100082.41
2023-03-21T23:36:50.995Z,100087.34
2023-03-21T23:39:40.233Z,100086.31
2023-03-21T23:42:30.877Z,100080.78
2023-03-21T23:45:19.837Z,100081.16
2023-03-21T23:48:10.069Z,100091.03
2023-03-21T23:50:59.286Z,100086.31
2023-03-21T23:53:48.471Z,100083.03
2023-03-21T23:56:37.815Z,100093.31
2023-03-21T23:59:27.572Z,100091.06
